Aeroporto :
LOGIN :

Iscrizione | Disclaimer

   EN    FR    IT 

 










Sommario :    VFR   VFR Marginale   IFR   IFR Intensivo   IFR Molto Intensivo
Visibilità : 
Base nubi : 
>= 8 km
>= 3000ft
5 / 8 km
1000 / 3000 ft
1500m / 5 km
500 / 1000 ft
800 / 1500m
200 / 500 ft
< 800m
< 200 ft
Simboli :   Temporali  Nebbia  Neve Forte  Precipitazioni Forti  Vento > 20 kt
SIGMETs :   Varie  Temporali  Ghiacco  Turbolenza  Onda orograficha  Ceneri Vulcaniche






- Altitudine del aeroporto : 1411 ft
- Codice IATA : ZHI


LSZG - Grenchen

ULTIMO METAR :
  • 171250Z 26005KT CAVOK 16/08 Q1016 NOSIG

METARs OBSOLETI :
  • 171220Z 24005KT CAVOK 16/09 Q1016 NOSIG
  • 171150Z 22006KT CAVOK 16/09 Q1016 NOSIG
  • 171120Z 23006KT 200V260 CAVOK 16/09 Q1016 NOSIG
  • 171050Z 22003KT CAVOK 15/09 Q1017 NOSIG
  • 171020Z 22003KT CAVOK 14/09 Q1017 NOSIG

TAF TAF LSZG
Valido dal 17 a 12 ore il 17 a 21 ore UTC


171125Z 1712/1721 22003KT CAVOK
BECMG 1712/1716 9999 BKN060
PROB30 1716/1721 SHRA
ATIS : +41 32 396 96 33



MetMap, La meteo Aeronautica in un colpo d'occhio ! - Copyright ORBIFLY Dicembre 2007 - Disclaimer

ORBIFLY MET'MAP TEAM :

Programmazione e sviluppo : Alexandra Zaïnal
Concezione e sviluppo : Baudouin d'Aumeries
Co-Programmazione e sviluppo : Marc-Olivier Méhu
Supporto tecnico e logistico : Manuel Goepfert
Aiuto per la traduzione : Arnaldo La Scala

Contatto : metmap@orbifly.com




FONTI E CREDITI :

   NOAA